Time,TemperatureF,DewpointF,PressureIn,WindDirection,WindDirectionDegrees,WindSpeedMPH,WindSpeedGustMPH,Humidity,HourlyPrecipIn,Conditions,Clouds,dailyrainin,SolarRadiationWatts/m^2,SoftwareType,DateUTC
2013-03-03 00:04:00,29.7,20.0,30.11,SSW,198,0.0,1.0,66,0.00,,,0.00,0,weatherlink.com 1.10,2013-03-03 05:04:00,
2013-03-03 00:19:00,29.7,20.0,30.11,SSW,213,0.0,3.0,67,0.00,,,0.00,0,weatherlink.com 1.10,2013-03-03 05:19:00,
2013-03-03 00:34:00,29.7,20.0,30.11,SSW,213,0.0,0.0,68,0.00,,,0.00,0,weatherlink.com 1.10,2013-03-03 05:34:00,
2013-03-03 00:49:00,29.5,20.0,30.11,WNW,287,0.0,2.0,69,0.00,,,0.00,0,weatherlink.com 1.10,2013-03-03 05:49:00,
2013-03-03 01:04:00,29.5,20.0,30.11,NE,52,0.0,3.0,69,0.00,,,0.00,0,weatherlink.com 1.10,2013-03-03 06:04:00,
2013-03-03 01:19:00,29.4,21.0,30.11,SE,131,0.0,1.0,70,0.00,,,0.00,0,weatherlink.com 1.10,2013-03-03 06:19:00,
2013-03-03 01:34:00,29.3,21.0,30.12,SW,229,0.0,1.0,71,0.00,,,0.00,0,weatherlink.com 1.10,2013-03-03 06:34:00,
2013-03-03 01:49:00,29.3,21.0,30.12,South,183,0.0,2.0,72,0.00,,,0.00,0,weatherlink.com 1.10,2013-03-03 06:49:00,
2013-03-03 02:04:00,29.1,21.0,30.12,ESE,113,0.0,3.0,73,0.00,,,0.00,0,weatherlink.com 1.10,2013-03-03 07:04:00,
2013-03-03 02:19:00,29.1,22.0,30.11,WNW,294,0.0,2.0,75,0.00,,,0.00,0,weatherlink.com 1.10,2013-03-03 07:19:00,
2013-03-03 02:34:00,29.0,22.0,30.12,NW,306,0.0,2.0,76,0.00,,,0.00,0,weatherlink.com 1.10,2013-03-03 07:34:00,
2013-03-03 02:49:00,28.8,22.0,30.11,NW,307,2.0,3.0,76,0.00,,,0.00,0,weatherlink.com 1.10,2013-03-03 07:49:00,
2013-03-03 03:04:00,28.7,22.0,30.11,WNW,284,0.0,2.0,77,0.00,,,0.00,0,weatherlink.com 1.10,2013-03-03 08:04:00,
2013-03-03 03:19:00,28.5,23.0,30.11,WSW,244,0.0,1.0,79,0.00,,,0.00,0,weatherlink.com 1.10,2013-03-03 08:19:00,
2013-03-03 03:34:00,28.4,23.0,30.11,SSE,161,0.0,0.0,79,0.00,,,0.00,0,weatherlink.com 1.10,2013-03-03 08:34:00,
2013-03-03 03:49:00,28.1,22.0,30.11,NW,304,0.0,2.0,77,0.00,,,0.00,0,weatherlink.com 1.10,2013-03-03 08:49:00,
2013-03-03 04:04:00,27.9,20.0,30.11,SSW,193,0.0,1.0,73,0.00,,,0.00,0,weatherlink.com 1.10,2013-03-03 09:04:00,
2013-03-03 04:19:00,27.9,19.0,30.11,ESE,111,0.0,2.0,70,0.00,,,0.00,0,weatherlink.com 1.10,2013-03-03 09:19:00,
2013-03-03 04:34:00,27.8,18.0,30.10,SSW,196,0.0,3.0,67,0.00,,,0.00,0,weatherlink.com 1.10,2013-03-03 09:34:00,
2013-03-03 04:49:00,27.6,18.0,30.11,SSW,196,0.0,1.0,68,0.00,,,0.00,0,weatherlink.com 1.10,2013-03-03 09:49:00,
2013-03-03 05:04:00,27.3,18.0,30.11,SW,236,0.0,2.0,67,0.00,,,0.00,0,weatherlink.com 1.10,2013-03-03 10:04:00,
2013-03-03 05:19:00,27.0,17.0,30.11,SW,236,0.0,1.0,66,0.00,,,0.00,0,weatherlink.com 1.10,2013-03-03 10:19:00,
2013-03-03 05:34:00,26.7,17.0,30.11,West,261,0.0,0.0,67,0.00,,,0.00,0,weatherlink.com 1.10,2013-03-03 10:34:00,
2013-03-03 05:49:00,26.4,17.0,30.11,West,261,0.0,0.0,68,0.00,,,0.00,0,weatherlink.com 1.10,2013-03-03 10:49:00,
2013-03-03 06:04:00,26.1,17.0,30.11,West,261,0.0,0.0,69,0.00,,,0.00,0,weatherlink.com 1.10,2013-03-03 11:04:00,
2013-03-03 06:19:00,25.7,17.0,30.11,West,261,0.0,0.0,70,0.00,,,0.00,0,weatherlink.com 1.10,2013-03-03 11:19:00,
2013-03-03 06:34:00,25.3,17.0,30.12,South,176,0.0,1.0,71,0.00,,,0.00,0,weatherlink.com 1.10,2013-03-03 11:34:00,
2013-03-03 06:49:00,25.0,17.0,30.12,South,176,0.0,0.0,73,0.00,,,0.00,0,weatherlink.com 1.10,2013-03-03 11:49:00,
2013-03-03 07:04:00,24.7,18.0,30.12,South,176,0.0,0.0,74,0.00,,,0.00,0,weatherlink.com 1.10,2013-03-03 12:04:00,
2013-03-03 07:19:00,24.7,17.0,30.13,South,176,0.0,0.0,73,0.00,,,0.00,5,weatherlink.com 1.10,2013-03-03 12:19:00,
2013-03-03 07:34:00,24.7,18.0,30.13,South,176,0.0,0.0,74,0.00,,,0.00,25,weatherlink.com 1.10,2013-03-03 12:34:00,
2013-03-03 07:49:00,24.7,18.0,30.13,South,176,0.0,0.0,74,0.00,,,0.00,44,weatherlink.com 1.10,2013-03-03 12:49:00,
2013-03-03 08:05:00,25.3,18.0,30.14,South,176,0.0,1.0,74,0.00,,,0.00,65,weatherlink.com 1.10,2013-03-03 13:05:00,
2013-03-03 08:20:00,26.0,19.0,30.14,South,176,0.0,1.0,74,0.00,,,0.00,90,weatherlink.com 1.10,2013-03-03 13:20:00,
2013-03-03 08:35:00,27.2,19.0,30.14,WNW,300,0.0,4.0,71,0.00,,,0.00,139,weatherlink.com 1.10,2013-03-03 13:35:00,
2013-03-03 08:50:00,28.2,19.0,30.15,West,263,0.0,2.0,68,0.00,,,0.00,139,weatherlink.com 1.10,2013-03-03 13:50:00,
2013-03-03 09:05:00,28.8,19.0,30.15,West,263,0.0,1.0,66,0.00,,,0.00,158,weatherlink.com 1.10,2013-03-03 14:05:00,
2013-03-03 09:20:00,29.0,18.0,30.15,West,270,0.0,4.0,64,0.00,,,0.00,111,weatherlink.com 1.10,2013-03-03 14:20:00,
2013-03-03 09:35:00,28.8,18.0,30.14,ENE,77,0.0,3.0,65,0.00,,,0.00,156,weatherlink.com 1.10,2013-03-03 14:35:00,
2013-03-03 09:50:00,29.5,18.0,30.15,West,269,0.0,4.0,62,0.00,,,0.00,183,weatherlink.com 1.10,2013-03-03 14:50:00,
2013-03-03 10:05:00,29.3,16.0,30.14,SW,228,1.0,3.0,59,0.00,,,0.00,118,weatherlink.com 1.10,2013-03-03 15:05:00,
2013-03-03 10:20:00,29.7,18.0,30.15,NNW,328,0.0,2.0,62,0.00,,,0.00,186,weatherlink.com 1.10,2013-03-03 15:20:00,
2013-03-03 10:35:00,30.1,18.0,30.15,SSW,192,0.0,3.0,61,0.00,,,0.00,149,weatherlink.com 1.10,2013-03-03 15:35:00,
2013-03-03 10:50:00,29.8,18.0,30.14,East,101,0.0,1.0,62,0.00,,,0.00,195,weatherlink.com 1.10,2013-03-03 15:50:00,
2013-03-03 11:05:00,30.4,17.0,30.14,ENE,65,2.0,2.0,57,0.00,,,0.00,287,weatherlink.com 1.10,2013-03-03 16:05:00,
2013-03-03 11:20:00,31.6,20.0,30.14,East,91,0.0,3.0,62,0.00,,,0.00,545,weatherlink.com 1.10,2013-03-03 16:20:00,
2013-03-03 11:35:00,32.5,18.0,30.14,WNW,284,0.0,5.0,55,0.00,,,0.00,234,weatherlink.com 1.10,2013-03-03 16:35:00,
2013-03-03 11:50:00,32.9,18.0,30.14,SW,220,4.0,4.0,55,0.00,,,0.00,330,weatherlink.com 1.10,2013-03-03 16:50:00,
2013-03-03 12:05:00,33.1,18.0,30.14,NNW,327,1.0,2.0,54,0.01,,,0.01,366,weatherlink.com 1.10,2013-03-03 17:05:00,
2013-03-03 12:20:00,33.1,17.0,30.13,SSE,164,0.0,4.0,53,0.01,,,0.01,288,weatherlink.com 1.10,2013-03-03 17:20:00,
2013-03-03 12:35:00,34.1,18.0,30.14,WSW,250,0.0,4.0,53,0.01,,,0.01,308,weatherlink.com 1.10,2013-03-03 17:35:00,
2013-03-03 12:50:00,33.8,16.0,30.13,NW,319,0.0,3.0,48,0.01,,,0.01,271,weatherlink.com 1.10,2013-03-03 17:50:00,
2013-03-03 13:05:00,33.8,18.0,30.13,WNW,293,2.0,2.0,53,0.00,,,0.01,297,weatherlink.com 1.10,2013-03-03 18:05:00,
2013-03-03 13:20:00,34.7,18.0,30.12,NE,55,0.0,2.0,51,0.00,,,0.01,258,weatherlink.com 1.10,2013-03-03 18:20:00,
2013-03-03 13:35:00,34.4,19.0,30.12,WNW,285,4.0,5.0,54,0.00,,,0.01,183,weatherlink.com 1.10,2013-03-03 18:35:00,
2013-03-03 13:50:00,35.0,20.0,30.12,West,274,0.0,5.0,54,0.00,,,0.01,390,weatherlink.com 1.10,2013-03-03 18:50:00,
2013-03-03 14:05:00,35.8,20.0,30.11,WNW,300,2.0,5.0,54,0.00,,,0.01,278,weatherlink.com 1.10,2013-03-03 19:05:00,
2013-03-03 14:20:00,34.9,18.0,30.11,SSE,163,0.0,6.0,50,0.00,,,0.01,274,weatherlink.com 1.10,2013-03-03 19:20:00,
2013-03-03 14:35:00,35.0,18.0,30.11,WNW,297,0.0,6.0,51,0.00,,,0.01,216,weatherlink.com 1.10,2013-03-03 19:35:00,
2013-03-03 14:50:00,35.2,19.0,30.11,SSW,213,0.0,6.0,52,0.00,,,0.01,221,weatherlink.com 1.10,2013-03-03 19:50:00,
2013-03-03 15:05:00,34.6,18.0,30.11,NE,34,0.0,2.0,51,0.00,,,0.01,176,weatherlink.com 1.10,2013-03-03 20:05:00,
2013-03-03 15:20:00,35.6,19.0,30.12,NW,306,0.0,5.0,52,0.00,,,0.01,573,weatherlink.com 1.10,2013-03-03 20:20:00,
2013-03-03 15:35:00,35.6,18.0,30.12,East,83,0.0,3.0,48,0.00,,,0.01,186,weatherlink.com 1.10,2013-03-03 20:35:00,
2013-03-03 15:50:00,35.9,19.0,30.12,WNW,284,0.0,4.0,51,0.00,,,0.01,211,weatherlink.com 1.10,2013-03-03 20:50:00,
2013-03-03 16:05:00,35.5,20.0,30.12,NW,318,0.0,6.0,53,0.00,,,0.01,218,weatherlink.com 1.10,2013-03-03 21:05:00,
2013-03-03 16:20:00,35.3,19.0,30.12,East,93,0.0,6.0,52,0.00,,,0.01,156,weatherlink.com 1.10,2013-03-03 21:20:00,
2013-03-03 16:35:00,35.5,18.0,30.12,WNW,293,0.0,4.0,50,0.00,,,0.01,97,weatherlink.com 1.10,2013-03-03 21:35:00,
2013-03-03 16:50:00,34.9,19.0,30.13,SW,234,0.0,5.0,52,0.00,,,0.01,91,weatherlink.com 1.10,2013-03-03 21:50:00,
2013-03-03 17:05:00,34.3,18.0,30.13,WNW,292,0.0,2.0,52,0.00,,,0.01,60,weatherlink.com 1.10,2013-03-03 22:05:00,
2013-03-03 17:20:00,33.8,19.0,30.13,SW,232,0.0,2.0,54,0.00,,,0.01,67,weatherlink.com 1.10,2013-03-03 22:20:00,
2013-03-03 17:35:00,33.8,19.0,30.13,SW,224,0.0,1.0,54,0.00,,,0.01,53,weatherlink.com 1.10,2013-03-03 22:35:00,
2013-03-03 17:50:00,33.7,18.0,30.14,NNE,18,0.0,2.0,53,0.00,,,0.01,28,weatherlink.com 1.10,2013-03-03 22:50:00,
2013-03-03 18:05:00,33.2,18.0,30.14,WNW,302,2.0,3.0,53,0.00,,,0.01,21,weatherlink.com 1.10,2013-03-03 23:05:00,
2013-03-03 18:20:00,32.9,18.0,30.14,WNW,300,0.0,1.0,54,0.00,,,0.01,9,weatherlink.com 1.10,2013-03-03 23:20:00,
2013-03-03 18:35:00,32.7,17.0,30.15,WNW,300,0.0,0.0,53,0.00,,,0.01,0,weatherlink.com 1.10,2013-03-03 23:35:00,
2013-03-03 18:50:00,32.4,17.0,30.15,WNW,300,0.0,0.0,54,0.00,,,0.01,0,weatherlink.com 1.10,2013-03-03 23:50:00,
2013-03-03 19:06:00,31.6,17.0,30.15,WNW,300,0.0,0.0,55,0.00,,,0.01,0,weatherlink.com 1.10,2013-03-04 00:06:00,
2013-03-03 19:21:00,31.0,17.0,30.15,WNW,300,0.0,0.0,57,0.00,,,0.01,0,weatherlink.com 1.10,2013-03-04 00:21:00,
2013-03-03 19:36:00,30.3,17.0,30.15,WNW,300,0.0,0.0,58,0.00,,,0.01,0,weatherlink.com 1.10,2013-03-04 00:36:00,
2013-03-03 19:51:00,29.7,17.0,30.15,WNW,300,0.0,0.0,60,0.00,,,0.01,0,weatherlink.com 1.10,2013-03-04 00:51:00,
2013-03-03 20:06:00,29.3,17.0,30.16,WNW,300,0.0,0.0,61,0.00,,,0.01,0,weatherlink.com 1.10,2013-03-04 01:06:00,
2013-03-03 20:21:00,28.8,18.0,30.16,WNW,300,0.0,0.0,63,0.00,,,0.01,0,weatherlink.com 1.10,2013-03-04 01:21:00,
2013-03-03 20:36:00,28.5,18.0,30.16,WNW,300,0.0,0.0,64,0.00,,,0.01,0,weatherlink.com 1.10,2013-03-04 01:36:00,
2013-03-03 20:51:00,28.2,17.0,30.16,WNW,300,0.0,0.0,64,0.00,,,0.01,0,weatherlink.com 1.10,2013-03-04 01:51:00,
2013-03-03 21:06:00,27.9,17.0,30.16,WNW,300,0.0,0.0,64,0.00,,,0.01,0,weatherlink.com 1.10,2013-03-04 02:06:00,
2013-03-03 21:21:00,27.6,17.0,30.16,WNW,300,0.0,0.0,65,0.00,,,0.01,0,weatherlink.com 1.10,2013-03-04 02:21:00,
2013-03-03 21:36:00,27.5,18.0,30.16,WNW,300,0.0,0.0,67,0.00,,,0.01,0,weatherlink.com 1.10,2013-03-04 02:36:00,
2013-03-03 21:51:00,27.3,18.0,30.16,WNW,300,0.0,0.0,69,0.00,,,0.01,0,weatherlink.com 1.10,2013-03-04 02:51:00,
2013-03-03 22:06:00,27.2,19.0,30.16,WNW,300,0.0,0.0,71,0.00,,,0.01,0,weatherlink.com 1.10,2013-03-04 03:06:00,
2013-03-03 22:21:00,27.0,19.0,30.16,WNW,300,0.0,0.0,73,0.00,,,0.01,0,weatherlink.com 1.10,2013-03-04 03:21:00,
2013-03-03 22:36:00,26.7,19.0,30.16,WNW,300,0.0,0.0,74,0.00,,,0.01,0,weatherlink.com 1.10,2013-03-04 03:36:00,
2013-03-03 22:51:00,26.6,20.0,30.16,WNW,300,0.0,0.0,76,0.00,,,0.01,0,weatherlink.com 1.10,2013-03-04 03:51:00,
2013-03-03 23:06:00,26.3,20.0,30.16,WNW,300,0.0,0.0,76,0.00,,,0.01,0,weatherlink.com 1.10,2013-03-04 04:06:00,
2013-03-03 23:21:00,26.0,20.0,30.15,WNW,300,0.0,0.0,77,0.00,,,0.01,0,weatherlink.com 1.10,2013-03-04 04:21:00,
2013-03-03 23:36:00,25.8,20.0,30.16,WNW,300,0.0,0.0,78,0.00,,,0.01,0,weatherlink.com 1.10,2013-03-04 04:36:00,
2013-03-03 23:51:00,25.6,20.0,30.16,WNW,300,0.0,0.0,78,0.00,,,0.01,0,weatherlink.com 1.10,2013-03-04 04:51:00,